createdAt,value
2023-02-11T00:00:00.957Z,3.76
2023-02-11T00:00:53.614Z,3.74
2023-02-11T00:01:45.289Z,3.71
2023-02-11T00:02:37.090Z,3.68
2023-02-11T00:03:28.640Z,3.65
2023-02-11T00:04:20.113Z,3.60
2023-02-11T00:05:11.698Z,3.58
2023-02-11T00:06:09.017Z,3.54
2023-02-11T00:07:00.651Z,3.49
2023-02-11T00:07:52.145Z,3.45
2023-02-11T00:08:43.708Z,3.41
2023-02-11T00:09:35.382Z,3.38
2023-02-11T00:10:26.801Z,3.35
2023-02-11T00:11:20.514Z,3.36
2023-02-11T00:12:12.204Z,3.32
2023-02-11T00:13:03.663Z,3.30
2023-02-11T00:13:55.056Z,3.28
2023-02-11T00:14:46.570Z,3.25
2023-02-11T00:15:38.034Z,3.18
2023-02-11T00:16:31.128Z,3.13
2023-02-11T00:17:23.320Z,3.10
2023-02-11T00:18:15.037Z,3.04
2023-02-11T00:19:06.942Z,3.01
2023-02-11T00:19:58.380Z,2.98
2023-02-11T00:20:50.083Z,3.02
2023-02-11T00:21:41.541Z,3.00
2023-02-11T00:22:33.193Z,3.18
2023-02-11T00:23:24.821Z,3.29
2023-02-11T00:24:16.270Z,3.28
2023-02-11T00:25:08.204Z,3.27
2023-02-11T00:25:59.679Z,3.25
2023-02-11T00:26:51.367Z,3.33
2023-02-11T00:27:42.825Z,3.31
2023-02-11T00:28:37.441Z,3.30
2023-02-11T00:29:29.296Z,3.37
2023-02-11T00:30:21.049Z,3.38
2023-02-11T00:31:13.774Z,3.36
2023-02-11T00:32:08.757Z,3.30
2023-02-11T00:33:00.206Z,3.27
2023-02-11T00:33:52.886Z,3.29
2023-02-11T00:34:44.370Z,3.32
2023-02-11T00:35:39.170Z,3.29
2023-02-11T00:36:32.653Z,3.27
2023-02-11T00:37:24.395Z,3.27
2023-02-11T00:38:16.469Z,3.32
2023-02-11T00:39:08.423Z,3.38
2023-02-11T00:40:00.623Z,3.41
2023-02-11T00:40:52.197Z,3.45
2023-02-11T00:41:43.642Z,3.41
2023-02-11T00:42:37.488Z,3.41
2023-02-11T00:43:29.043Z,3.38
2023-02-11T00:44:21.393Z,3.43
2023-02-11T00:45:13.072Z,3.43
2023-02-11T00:46:05.691Z,3.43
2023-02-11T00:46:57.124Z,3.44
2023-02-11T00:47:48.982Z,3.50
2023-02-11T00:48:41.263Z,3.49
2023-02-11T00:49:32.852Z,3.48
2023-02-11T00:50:24.580Z,3.44
2023-02-11T00:51:16.064Z,3.42
2023-02-11T00:52:07.601Z,3.41
2023-02-11T00:52:59.364Z,3.40
2023-02-11T00:53:50.949Z,3.43
2023-02-11T00:54:42.496Z,3.47
2023-02-11T00:55:34.403Z,3.51
2023-02-11T00:56:26.777Z,3.59
2023-02-11T00:57:18.524Z,3.63
2023-02-11T00:58:10.262Z,3.71
2023-02-11T00:59:01.799Z,3.72
2023-02-11T00:59:53.241Z,3.71
2023-02-11T01:00:46.154Z,3.70
2023-02-11T01:01:38.939Z,3.70
2023-02-11T01:02:30.479Z,3.66
2023-02-11T01:03:22.436Z,3.70
2023-02-11T01:04:13.958Z,3.69
2023-02-11T01:05:06.446Z,3.72
2023-02-11T01:05:58.128Z,3.78
2023-02-11T01:06:49.761Z,3.80
2023-02-11T01:07:41.190Z,3.89
2023-02-11T01:08:32.697Z,3.89
2023-02-11T01:09:24.169Z,3.89
2023-02-11T01:10:15.676Z,4.06
2023-02-11T01:11:15.697Z,4.22
2023-02-11T01:12:09.547Z,4.19
2023-02-11T01:13:01.770Z,4.13
2023-02-11T01:13:53.446Z,4.11
2023-02-11T01:14:46.602Z,4.05
2023-02-11T01:15:38.123Z,3.90
2023-02-11T01:16:29.987Z,3.86
2023-02-11T01:17:21.467Z,3.83
2023-02-11T01:18:14.735Z,3.81
2023-02-11T01:19:06.492Z,3.75
2023-02-11T01:19:57.953Z,3.74
2023-02-11T01:20:51.841Z,3.71
2023-02-11T01:21:43.647Z,3.71
2023-02-11T01:22:39.378Z,3.63
2023-02-11T01:23:31.043Z,3.55
2023-02-11T01:24:22.522Z,3.55
2023-02-11T01:25:14.997Z,3.47
2023-02-11T01:26:06.715Z,3.41
2023-02-11T01:26:58.471Z,3.40
2023-02-11T01:27:49.989Z,3.34
2023-02-11T01:28:41.588Z,3.30
2023-02-11T01:29:33.209Z,3.21
2023-02-11T01:30:24.927Z,3.15
2023-02-11T01:31:16.557Z,3.13
2023-02-11T01:32:08.075Z,3.11
2023-02-11T01:32:59.639Z,3.09
2023-02-11T01:33:51.140Z,3.04
2023-02-11T01:34:42.569Z,3.02
2023-02-11T01:35:34.263Z,3.02
2023-02-11T01:36:25.930Z,3.03
2023-02-11T01:37:17.480Z,3.12
2023-02-11T01:38:16.668Z,3.13
2023-02-11T01:39:08.712Z,3.15
2023-02-11T01:40:02.443Z,3.12
2023-02-11T01:41:06.519Z,3.10
2023-02-11T01:41:57.939Z,3.21
2023-02-11T01:42:51.156Z,3.27
2023-02-11T01:43:47.573Z,3.40
2023-02-11T01:44:40.109Z,3.41
2023-02-11T01:45:47.128Z,3.34
2023-02-11T01:46:38.679Z,3.30
2023-02-11T01:47:30.161Z,3.27
2023-02-11T01:48:30.849Z,3.25
2023-02-11T01:49:29.455Z,3.27
2023-02-11T01:50:20.942Z,3.24
2023-02-11T01:51:27.328Z,3.37
2023-02-11T01:52:35.141Z,3.36
2023-02-11T01:53:47.425Z,3.32
2023-02-11T01:55:10.029Z,3.37
2023-02-11T01:56:22.364Z,3.37
2023-02-11T01:57:24.999Z,3.33
2023-02-11T01:58:17.023Z,3.30
2023-02-11T01:59:17.345Z,3.27
2023-02-11T02:00:22.099Z,3.24
2023-02-11T02:01:21.300Z,3.27
2023-02-11T02:02:17.411Z,3.26
2023-02-11T02:03:20.363Z,3.30
2023-02-11T02:04:17.667Z,3.37
2023-02-11T02:05:52.785Z,3.52
2023-02-11T02:06:55.952Z,3.58
2023-02-11T02:07:55.716Z,3.60
2023-02-11T02:09:00.135Z,3.63
2023-02-11T02:10:01.641Z,3.77
2023-02-11T02:10:56.363Z,3.81
2023-02-11T02:11:48.834Z,3.84
2023-02-11T02:12:40.550Z,3.86
2023-02-11T02:13:34.367Z,3.90
2023-02-11T02:14:26.782Z,3.92
2023-02-11T02:15:24.701Z,3.96
2023-02-11T02:16:19.593Z,3.98
2023-02-11T02:17:27.466Z,4.01
2023-02-11T02:18:33.914Z,4.00
2023-02-11T02:19:59.449Z,4.01
2023-02-11T02:21:22.058Z,4.12
2023-02-11T02:22:42.487Z,4.28
2023-02-11T02:24:07.949Z,4.17
2023-02-11T02:25:10.238Z,4.26
2023-02-11T02:26:27.101Z,4.32
2023-02-11T02:27:40.300Z,4.31
2023-02-11T02:29:08.566Z,4.28
2023-02-11T02:30:18.899Z,4.26
2023-02-11T02:31:26.319Z,4.30
2023-02-11T02:32:37.493Z,4.39
2023-02-11T02:33:47.237Z,4.46
2023-02-11T02:34:54.061Z,4.40
2023-02-11T02:36:05.985Z,4.35
2023-02-11T02:37:11.960Z,4.29
2023-02-11T02:38:14.045Z,4.30
2023-02-11T02:39:26.704Z,4.35
2023-02-11T02:40:42.788Z,4.44
2023-02-11T02:41:37.047Z,4.35
2023-02-11T02:42:28.743Z,4.28
2023-02-11T02:43:22.682Z,4.20
2023-02-11T02:44:14.238Z,4.19
2023-02-11T02:45:08.135Z,4.11
2023-02-11T02:46:19.529Z,4.15
2023-02-11T02:47:11.197Z,4.16
2023-02-11T02:48:03.328Z,4.14
2023-02-11T02:48:56.998Z,4.06
2023-02-11T02:49:48.507Z,4.01
2023-02-11T02:50:40.062Z,4.00
2023-02-11T02:51:43.350Z,3.96
2023-02-11T02:52:55.978Z,3.97
2023-02-11T02:54:24.996Z,3.97
2023-02-11T02:55:38.389Z,4.02
2023-02-11T02:56:36.749Z,4.15
2023-02-11T02:57:57.659Z,4.10
2023-02-11T02:59:03.845Z,4.02
2023-02-11T03:00:19.587Z,4.01
2023-02-11T03:01:50.054Z,4.07
2023-02-11T03:03:04.582Z,3.96
2023-02-11T03:04:25.042Z,3.86
2023-02-11T03:05:34.163Z,3.82
2023-02-11T03:06:31.416Z,3.85
2023-02-11T03:07:39.939Z,3.90
2023-02-11T03:08:46.679Z,3.90
2023-02-11T03:09:48.326Z,3.87
2023-02-11T03:10:49.977Z,3.86
2023-02-11T03:11:41.978Z,3.88
2023-02-11T03:12:37.205Z,3.88
2023-02-11T03:13:36.909Z,3.87
2023-02-11T03:14:32.357Z,3.86
2023-02-11T03:15:28.408Z,3.89
2023-02-11T03:16:26.246Z,3.92
2023-02-11T03:17:19.636Z,3.93
2023-02-11T03:18:16.982Z,3.94
2023-02-11T03:19:15.645Z,3.99
2023-02-11T03:20:12.883Z,4.05
2023-02-11T03:21:07.769Z,4.07
2023-02-11T03:21:59.795Z,4.07
2023-02-11T03:23:02.476Z,4.13
2023-02-11T03:23:58.002Z,4.18
2023-02-11T03:24:49.681Z,4.19
2023-02-11T03:25:56.203Z,4.22
2023-02-11T03:26:54.169Z,4.27
2023-02-11T03:28:08.086Z,4.33
2023-02-11T03:29:23.916Z,4.31
2023-02-11T03:30:19.223Z,4.29
2023-02-11T03:31:16.087Z,4.34
2023-02-11T03:32:38.753Z,4.33
2023-02-11T03:33:50.887Z,4.39
2023-02-11T03:35:14.914Z,4.46
2023-02-11T03:36:15.138Z,4.41
2023-02-11T03:37:24.559Z,4.42
2023-02-11T03:38:29.457Z,4.39
2023-02-11T03:39:29.480Z,4.44
2023-02-11T03:40:29.566Z,4.48
2023-02-11T03:41:24.491Z,4.49
2023-02-11T03:42:17.596Z,4.46
2023-02-11T03:43:17.471Z,4.49
2023-02-11T03:44:14.756Z,4.49
2023-02-11T03:45:12.395Z,4.49
2023-02-11T03:46:06.091Z,4.54
2023-02-11T03:46:59.638Z,4.53
2023-02-11T03:48:04.035Z,4.45
2023-02-11T03:49:02.867Z,4.45
2023-02-11T03:49:59.306Z,4.45
2023-02-11T03:50:53.904Z,4.50
2023-02-11T03:51:49.725Z,4.49
2023-02-11T03:52:41.945Z,4.45
2023-02-11T03:53:33.890Z,4.44
2023-02-11T03:54:30.862Z,4.45
2023-02-11T03:55:25.803Z,4.50
2023-02-11T03:56:23.872Z,4.50
2023-02-11T03:57:15.459Z,4.52
2023-02-11T03:58:08.295Z,4.48
2023-02-11T03:59:00.113Z,4.49
2023-02-11T03:59:59.111Z,4.53
2023-02-11T04:00:50.704Z,4.67
2023-02-11T04:01:42.258Z,4.67
2023-02-11T04:02:36.297Z,4.64
2023-02-11T04:03:27.838Z,4.60
2023-02-11T04:04:19.311Z,4.60
2023-02-11T04:05:14.949Z,4.60
2023-02-11T04:06:07.279Z,4.58
2023-02-11T04:06:58.750Z,4.64
2023-02-11T04:07:50.447Z,4.67
2023-02-11T04:08:41.942Z,4.72
2023-02-11T04:09:33.396Z,4.75
2023-02-11T04:10:25.139Z,4.72
2023-02-11T04:11:16.677Z,4.66
2023-02-11T04:12:08.396Z,4.64
2023-02-11T04:12:59.942Z,4.64
2023-02-11T04:13:51.415Z,4.65
2023-02-11T04:14:43.203Z,4.64
2023-02-11T04:15:34.925Z,4.67
2023-02-11T04:16:26.537Z,4.68
2023-02-11T04:17:18.857Z,4.67
2023-02-11T04:18:10.535Z,4.66
2023-02-11T04:19:02.010Z,4.63
2023-02-11T04:19:53.586Z,4.60
2023-02-11T04:20:45.095Z,4.61
2023-02-11T04:21:36.520Z,4.60
2023-02-11T04:22:27.982Z,4.61
2023-02-11T04:23:19.424Z,4.63
2023-02-11T04:24:10.901Z,4.65
2023-02-11T04:25:02.802Z,4.74
2023-02-11T04:25:54.264Z,4.77
2023-02-11T04:26:45.801Z,4.74
2023-02-11T04:27:37.350Z,4.71
2023-02-11T04:28:29.592Z,4.72
2023-02-11T04:29:21.234Z,4.77
2023-02-11T04:30:13.622Z,4.75
2023-02-11T04:31:05.519Z,4.72
2023-02-11T04:31:57.156Z,4.68
2023-02-11T04:32:48.988Z,4.69
2023-02-11T04:33:40.693Z,4.67
2023-02-11T04:34:32.489Z,4.67
2023-02-11T04:35:24.022Z,4.68
2023-02-11T04:36:15.514Z,4.65
2023-02-11T04:37:07.440Z,4.70
2023-02-11T04:37:58.947Z,4.72
2023-02-11T04:38:50.669Z,4.71
2023-02-11T04:39:42.089Z,4.71
2023-02-11T04:40:34.049Z,4.73
2023-02-11T04:41:25.791Z,4.70
2023-02-11T04:42:17.264Z,4.70
2023-02-11T04:43:09.008Z,4.68
2023-02-11T04:44:00.766Z,4.69
2023-02-11T04:44:52.497Z,4.70
2023-02-11T04:45:44.172Z,4.68
2023-02-11T04:46:35.780Z,4.67
2023-02-11T04:47:27.446Z,4.68
2023-02-11T04:48:19.153Z,4.75
2023-02-11T04:49:15.481Z,4.74
2023-02-11T04:50:07.022Z,4.71
2023-02-11T04:50:58.508Z,4.72
2023-02-11T04:51:50.005Z,4.71
2023-02-11T04:52:42.461Z,4.69
2023-02-11T04:53:34.007Z,4.70
2023-02-11T04:54:25.726Z,4.73
2023-02-11T04:55:17.517Z,4.75
2023-02-11T04:56:09.036Z,4.72
2023-02-11T04:57:01.148Z,4.71
2023-02-11T04:57:52.654Z,4.70
2023-02-11T04:58:44.148Z,4.70
2023-02-11T04:59:35.651Z,4.70
2023-02-11T05:00:27.126Z,4.68
2023-02-11T05:01:18.687Z,4.71
2023-02-11T05:02:10.180Z,4.70
2023-02-11T05:03:01.887Z,4.70
2023-02-11T05:03:53.461Z,4.71
2023-02-11T05:04:45.390Z,4.72
2023-02-11T05:05:41.526Z,4.70
2023-02-11T05:06:34.105Z,4.74
2023-02-11T05:07:25.546Z,4.72
2023-02-11T05:08:16.988Z,4.74
2023-02-11T05:09:12.343Z,4.87
2023-02-11T05:10:04.969Z,4.86
2023-02-11T05:10:56.599Z,4.82
2023-02-11T05:11:48.179Z,4.79
2023-02-11T05:12:39.802Z,4.82
2023-02-11T05:13:31.661Z,4.80
2023-02-11T05:14:23.246Z,4.80
2023-02-11T05:15:15.179Z,4.77
2023-02-11T05:16:06.733Z,4.78
2023-02-11T05:16:58.200Z,4.74
2023-02-11T05:17:49.708Z,4.75
2023-02-11T05:18:42.921Z,4.79
2023-02-11T05:19:34.390Z,4.82
2023-02-11T05:20:25.869Z,4.79
2023-02-11T05:21:19.380Z,4.79
2023-02-11T05:22:11.189Z,4.77
2023-02-11T05:23:02.683Z,4.83
2023-02-11T05:23:54.345Z,4.86
2023-02-11T05:24:45.802Z,4.82
2023-02-11T05:25:37.607Z,4.79
2023-02-11T05:26:29.098Z,4.83
2023-02-11T05:27:20.608Z,4.79
2023-02-11T05:28:12.106Z,4.79
2023-02-11T05:29:03.915Z,4.82
2023-02-11T05:29:55.387Z,4.84
2023-02-11T05:30:46.987Z,4.85
2023-02-11T05:31:38.737Z,4.86
2023-02-11T05:32:30.442Z,4.84
2023-02-11T05:33:22.257Z,4.80
2023-02-11T05:34:13.709Z,4.79
2023-02-11T05:35:05.564Z,4.78
2023-02-11T05:36:08.681Z,4.78
2023-02-11T05:37:00.556Z,4.83
2023-02-11T05:37:52.295Z,4.83
2023-02-11T05:38:43.884Z,4.82
2023-02-11T05:39:35.628Z,4.79
2023-02-11T05:40:27.114Z,4.78
2023-02-11T05:41:19.448Z,4.76
2023-02-11T05:42:11.025Z,4.75
2023-02-11T05:43:02.685Z,4.75
2023-02-11T05:43:54.167Z,4.74
2023-02-11T05:44:45.790Z,4.72
2023-02-11T05:45:37.278Z,4.80
2023-02-11T05:46:28.854Z,4.84
2023-02-11T05:47:20.623Z,4.80
2023-02-11T05:48:12.275Z,4.82
2023-02-11T05:49:04.344Z,4.82
2023-02-11T05:49:55.822Z,4.80
2023-02-11T05:50:47.548Z,4.80
2023-02-11T05:51:39.000Z,4.78
2023-02-11T05:52:30.769Z,4.77
2023-02-11T05:53:22.541Z,4.80
2023-02-11T05:54:14.473Z,4.79
2023-02-11T05:55:06.231Z,4.79
2023-02-11T05:55:57.760Z,4.78
2023-02-11T05:56:49.370Z,4.80
2023-02-11T05:57:41.033Z,4.80
2023-02-11T05:58:32.698Z,4.84
2023-02-11T05:59:24.174Z,4.87
2023-02-11T06:00:16.079Z,4.88
2023-02-11T06:01:07.832Z,4.86
2023-02-11T06:01:59.310Z,4.84
2023-02-11T06:02:51.046Z,4.89
2023-02-11T06:03:42.856Z,4.89
2023-02-11T06:04:35.321Z,4.88
2023-02-11T06:05:27.014Z,4.88
2023-02-11T06:06:18.896Z,4.88
2023-02-11T06:07:10.432Z,4.87
2023-02-11T06:08:01.949Z,4.86
2023-02-11T06:08:53.703Z,4.92
2023-02-11T06:09:45.590Z,4.93
2023-02-11T06:10:37.113Z,4.88
2023-02-11T06:11:28.600Z,4.82
2023-02-11T06:12:20.035Z,4.79
2023-02-11T06:13:11.481Z,4.80
2023-02-11T06:14:03.200Z,4.78
2023-02-11T06:14:54.682Z,4.81
2023-02-11T06:15:56.247Z,4.82
2023-02-11T06:16:47.868Z,4.82
2023-02-11T06:17:39.360Z,4.80
2023-02-11T06:18:32.305Z,4.81
2023-02-11T06:19:23.850Z,4.84
2023-02-11T06:20:15.499Z,4.83
2023-02-11T06:21:08.739Z,4.84
2023-02-11T06:22:00.204Z,4.85
2023-02-11T06:22:51.671Z,4.84
2023-02-11T06:23:43.581Z,4.87
2023-02-11T06:24:58.487Z,4.88
2023-02-11T06:25:46.581Z,4.84
2023-02-11T06:26:38.146Z,4.84
2023-02-11T06:27:30.313Z,4.88
2023-02-11T06:28:21.970Z,4.89
2023-02-11T06:29:14.151Z,4.93
2023-02-11T06:30:07.114Z,4.90
2023-02-11T06:31:04.438Z,4.87
2023-02-11T06:31:56.291Z,4.86
2023-02-11T06:32:48.029Z,4.78
2023-02-11T06:33:39.767Z,4.75
2023-02-11T06:34:31.591Z,4.74
2023-02-11T06:35:23.135Z,4.72
2023-02-11T06:36:18.759Z,4.76
2023-02-11T06:37:10.262Z,4.81
2023-02-11T06:38:01.915Z,4.80
2023-02-11T06:38:53.695Z,4.79
2023-02-11T06:39:45.400Z,4.78
2023-02-11T06:40:37.060Z,4.75
2023-02-11T06:41:28.766Z,4.75
2023-02-11T06:42:20.420Z,4.71
2023-02-11T06:43:11.843Z,4.76
2023-02-11T06:44:04.028Z,4.80
2023-02-11T06:44:55.540Z,4.74
2023-02-11T06:45:52.900Z,4.72
2023-02-11T06:46:44.744Z,4.73
2023-02-11T06:47:37.505Z,4.71
2023-02-11T06:48:29.234Z,4.74
2023-02-11T06:49:20.727Z,4.76
2023-02-11T06:50:14.765Z,4.75
2023-02-11T06:51:12.965Z,4.79
2023-02-11T06:52:04.514Z,4.77
2023-02-11T06:52:55.971Z,4.78
2023-02-11T06:53:47.522Z,4.80
2023-02-11T06:54:39.067Z,4.82
2023-02-11T06:55:30.572Z,4.80
2023-02-11T06:56:24.526Z,4.83
2023-02-11T06:57:16.093Z,4.83
2023-02-11T06:58:07.667Z,4.84
2023-02-11T06:58:59.424Z,4.84
2023-02-11T06:59:51.475Z,4.84
2023-02-11T07:00:43.336Z,4.83
2023-02-11T07:01:34.841Z,4.80
2023-02-11T07:02:26.714Z,4.85
2023-02-11T07:03:18.296Z,4.82
2023-02-11T07:04:10.588Z,4.79
2023-02-11T07:05:02.026Z,4.78
2023-02-11T07:05:53.551Z,4.78
2023-02-11T07:06:45.169Z,4.80
2023-02-11T07:07:37.088Z,4.81
2023-02-11T07:08:29.508Z,4.83
2023-02-11T07:09:20.968Z,4.84
2023-02-11T07:10:13.284Z,4.85
2023-02-11T07:11:13.581Z,4.83
2023-02-11T07:12:05.118Z,4.82
2023-02-11T07:12:58.789Z,4.84
2023-02-11T07:13:52.759Z,4.92
2023-02-11T07:14:44.388Z,4.92
2023-02-11T07:15:37.288Z,4.89
2023-02-11T07:16:29.055Z,4.87
2023-02-11T07:17:20.596Z,4.87
2023-02-11T07:18:14.532Z,4.88
2023-02-11T07:19:06.145Z,4.86
2023-02-11T07:19:57.870Z,4.86
2023-02-11T07:20:49.357Z,4.93
2023-02-11T07:21:41.080Z,4.93
2023-02-11T07:22:34.838Z,4.92
2023-02-11T07:23:26.274Z,4.92
2023-02-11T07:24:18.780Z,4.87
2023-02-11T07:25:10.420Z,4.86
2023-02-11T07:26:06.132Z,4.84
2023-02-11T07:26:57.719Z,4.84
2023-02-11T07:27:50.048Z,4.85
2023-02-11T07:28:42.489Z,4.85
2023-02-11T07:29:33.978Z,4.88
2023-02-11T07:30:25.636Z,4.86
2023-02-11T07:31:20.420Z,4.85
2023-02-11T07:32:11.961Z,4.85
2023-02-11T07:33:03.714Z,4.82
2023-02-11T07:33:59.409Z,4.83
2023-02-11T07:34:50.975Z,4.82
2023-02-11T07:35:42.826Z,4.83
2023-02-11T07:36:34.788Z,4.80
2023-02-11T07:37:26.362Z,4.78
2023-02-11T07:38:17.796Z,4.78
2023-02-11T07:39:09.617Z,4.77
2023-02-11T07:40:01.052Z,4.76
2023-02-11T07:40:52.836Z,4.76
2023-02-11T07:41:47.687Z,4.77
2023-02-11T07:42:41.018Z,4.77
2023-02-11T07:43:33.443Z,4.76
2023-02-11T07:44:25.186Z,4.78
2023-02-11T07:45:17.363Z,4.79
2023-02-11T07:46:27.183Z,4.80
2023-02-11T07:47:18.731Z,4.84
2023-02-11T07:48:10.175Z,4.84
2023-02-11T07:49:02.659Z,4.84
2023-02-11T07:49:56.549Z,4.81
2023-02-11T07:50:48.261Z,4.79
2023-02-11T07:51:39.765Z,4.80
2023-02-11T07:52:31.601Z,4.80
2023-02-11T07:53:23.082Z,4.78
2023-02-11T07:54:14.752Z,4.80
2023-02-11T07:55:06.404Z,4.82
2023-02-11T07:55:57.878Z,4.82
2023-02-11T07:56:49.503Z,4.80
2023-02-11T07:57:41.432Z,4.82
2023-02-11T07:58:33.560Z,4.85
2023-02-11T07:59:25.174Z,4.88
2023-02-11T08:00:19.992Z,4.90
2023-02-11T08:01:16.877Z,4.92
2023-02-11T08:02:09.544Z,4.94
2023-02-11T08:03:01.122Z,4.95
2023-02-11T08:03:53.025Z,4.95
2023-02-11T08:04:46.983Z,4.96
2023-02-11T08:05:39.135Z,4.96
2023-02-11T08:06:34.299Z,4.95
2023-02-11T08:07:26.145Z,4.98
2023-02-11T08:08:17.885Z,4.98
2023-02-11T08:09:15.625Z,4.97
2023-02-11T08:10:07.662Z,4.97
2023-02-11T08:11:00.022Z,4.97
2023-02-11T08:11:51.505Z,4.93
2023-02-11T08:12:42.948Z,4.95
2023-02-11T08:13:35.199Z,4.95
2023-02-11T08:14:27.214Z,4.98
2023-02-11T08:15:18.633Z,4.99
2023-02-11T08:16:27.952Z,5.00
2023-02-11T08:17:19.703Z,5.01
2023-02-11T08:18:11.152Z,5.02
2023-02-11T08:19:11.513Z,5.03
2023-02-11T08:20:05.356Z,5.03
2023-02-11T08:20:57.080Z,5.04
2023-02-11T08:21:48.714Z,5.08
2023-02-11T08:22:40.439Z,5.07
2023-02-11T08:23:31.889Z,5.05
2023-02-11T08:24:23.933Z,5.06
2023-02-11T08:25:15.508Z,5.04
2023-02-11T08:26:11.096Z,5.03
2023-02-11T08:27:02.551Z,5.02
2023-02-11T08:27:54.083Z,5.02
2023-02-11T08:28:47.620Z,5.00
2023-02-11T08:29:39.026Z,5.01
2023-02-11T08:30:30.517Z,5.08
2023-02-11T08:31:26.122Z,5.12
2023-02-11T08:32:17.771Z,5.05
2023-02-11T08:33:09.325Z,5.11
2023-02-11T08:34:02.219Z,5.11
2023-02-11T08:34:54.919Z,5.11
2023-02-11T08:35:46.591Z,5.12
2023-02-11T08:36:39.764Z,5.11
2023-02-11T08:37:33.061Z,5.12
2023-02-11T08:38:24.700Z,5.12
2023-02-11T08:39:21.461Z,5.13
2023-02-11T08:40:13.156Z,5.16
2023-02-11T08:41:05.699Z,5.16
2023-02-11T08:41:57.261Z,5.13
2023-02-11T08:42:48.795Z,5.13
2023-02-11T08:43:41.863Z,5.09
2023-02-11T08:44:33.392Z,5.12
2023-02-11T08:45:24.968Z,5.14
2023-02-11T08:46:19.828Z,5.12
2023-02-11T08:47:11.558Z,5.14
2023-02-11T08:48:03.127Z,5.14
2023-02-11T08:48:54.582Z,5.11
2023-02-11T08:49:47.478Z,5.13
2023-02-11T08:50:40.120Z,5.15
2023-02-11T08:51:31.684Z,5.19
2023-02-11T08:52:23.435Z,5.21
2023-02-11T08:53:14.998Z,5.19
2023-02-11T08:54:09.624Z,5.19
2023-02-11T08:55:01.153Z,5.16
2023-02-11T08:55:54.970Z,5.16
2023-02-11T08:56:51.347Z,5.17
2023-02-11T08:57:43.057Z,5.17
2023-02-11T08:58:34.503Z,5.21
2023-02-11T08:59:26.112Z,5.23
2023-02-11T09:00:18.617Z,5.23
2023-02-11T09:01:24.982Z,5.20
2023-02-11T09:02:16.653Z,5.21
2023-02-11T09:03:08.103Z,5.22
2023-02-11T09:03:59.832Z,5.22
2023-02-11T09:04:51.367Z,5.23
2023-02-11T09:05:45.170Z,5.24
2023-02-11T09:06:36.760Z,5.32
2023-02-11T09:07:28.988Z,5.29
2023-02-11T09:08:21.120Z,5.27
2023-02-11T09:09:14.900Z,5.32
2023-02-11T09:10:06.863Z,5.31
2023-02-11T09:10:58.308Z,5.29
2023-02-11T09:11:50.085Z,5.28
2023-02-11T09:12:41.666Z,5.25
2023-02-11T09:13:33.937Z,5.29
2023-02-11T09:14:25.612Z,5.30
2023-02-11T09:15:17.105Z,5.32
2023-02-11T09:16:16.580Z,5.34
2023-02-11T09:17:08.080Z,5.32
2023-02-11T09:17:59.802Z,5.30
2023-02-11T09:18:52.282Z,5.30
2023-02-11T09:19:43.776Z,5.30
2023-02-11T09:20:35.467Z,5.32
2023-02-11T09:21:28.353Z,5.33
2023-02-11T09:22:19.782Z,5.33
2023-02-11T09:23:11.389Z,5.34
2023-02-11T09:24:03.411Z,5.35
2023-02-11T09:24:54.916Z,5.34
2023-02-11T09:25:46.430Z,5.40
2023-02-11T09:26:38.214Z,5.41
2023-02-11T09:27:29.737Z,5.40
2023-02-11T09:28:21.420Z,5.37
2023-02-11T09:29:13.392Z,5.36
2023-02-11T09:30:05.479Z,5.34
2023-02-11T09:30:56.979Z,5.34
2023-02-11T09:31:49.764Z,5.34
2023-02-11T09:32:41.572Z,5.30
2023-02-11T09:33:33.414Z,5.32
2023-02-11T09:34:24.880Z,5.37
2023-02-11T09:35:16.334Z,5.35
2023-02-11T09:36:08.716Z,5.36
2023-02-11T09:37:00.264Z,5.37
2023-02-11T09:37:51.988Z,5.33
2023-02-11T09:38:44.771Z,5.33
2023-02-11T09:39:36.488Z,5.29
2023-02-11T09:40:28.507Z,5.31
2023-02-11T09:41:23.111Z,5.41
2023-02-11T09:42:39.373Z,5.42
2023-02-11T09:43:41.842Z,5.38
2023-02-11T09:44:36.388Z,5.37
2023-02-11T09:45:30.893Z,5.43
2023-02-11T09:46:25.793Z,5.38
2023-02-11T09:47:36.637Z,5.44
2023-02-11T09:48:42.408Z,5.41
2023-02-11T09:49:43.081Z,5.38
2023-02-11T09:50:39.221Z,5.36
2023-02-11T09:51:46.352Z,5.38
2023-02-11T09:52:51.672Z,5.37
2023-02-11T09:53:43.604Z,5.38
2023-02-11T09:54:51.900Z,5.42
2023-02-11T09:55:47.791Z,5.42
2023-02-11T09:56:39.362Z,5.44
2023-02-11T09:57:36.223Z,5.44
2023-02-11T09:58:36.932Z,5.49
2023-02-11T09:59:28.491Z,5.48
2023-02-11T10:00:32.254Z,5.49
2023-02-11T10:01:40.055Z,5.52
2023-02-11T10:02:50.879Z,5.52
2023-02-11T10:04:00.532Z,5.49
2023-02-11T10:05:35.133Z,5.51
2023-02-11T10:06:35.450Z,5.55
2023-02-11T10:08:09.859Z,5.62
2023-02-11T10:09:10.131Z,5.58
2023-02-11T10:10:11.989Z,5.63
2023-02-11T10:11:26.019Z,5.70
2023-02-11T10:12:50.243Z,5.71
2023-02-11T10:14:04.628Z,5.68
2023-02-11T10:15:09.614Z,5.71
2023-02-11T10:16:15.095Z,5.74
2023-02-11T10:17:09.873Z,5.76
2023-02-11T10:18:13.727Z,5.77
2023-02-11T10:19:39.421Z,5.79
2023-02-11T10:20:39.128Z,5.77
2023-02-11T10:21:50.658Z,5.72
2023-02-11T10:22:49.367Z,5.71
2023-02-11T10:23:46.781Z,5.72
2023-02-11T10:24:41.335Z,5.67
2023-02-11T10:25:40.463Z,5.72
2023-02-11T10:26:36.125Z,5.70
2023-02-11T10:27:37.149Z,5.65
2023-02-11T10:28:33.452Z,5.69
2023-02-11T10:29:48.481Z,5.72
2023-02-11T10:31:02.137Z,5.66
2023-02-11T10:32:30.526Z,5.69
2023-02-11T10:33:38.009Z,5.71
2023-02-11T10:37:37.496Z,5.78
2023-02-11T10:38:39.886Z,5.81
2023-02-11T10:39:32.035Z,5.81
2023-02-11T10:40:34.053Z,5.78
2023-02-11T10:41:38.512Z,5.77
2023-02-11T10:43:26.157Z,5.81
2023-02-11T10:44:40.105Z,5.86
2023-02-11T10:45:51.338Z,5.83
2023-02-11T10:46:45.106Z,5.79
2023-02-11T10:48:49.517Z,5.76
2023-02-11T10:49:48.071Z,5.83
2023-02-11T10:50:39.601Z,5.85
2023-02-11T10:51:34.179Z,5.85
2023-02-11T10:52:30.699Z,5.84
2023-02-11T10:53:24.209Z,5.80
2023-02-11T10:54:24.499Z,5.84
2023-02-11T10:55:25.941Z,5.88
2023-02-11T10:56:26.450Z,5.89
2023-02-11T10:57:20.002Z,5.91
2023-02-11T10:58:29.216Z,5.92
2023-02-11T10:59:31.314Z,5.92
2023-02-11T11:00:33.992Z,5.91
2023-02-11T11:01:46.674Z,5.94
2023-02-11T11:02:44.024Z,5.96
2023-02-11T11:03:47.193Z,6.01
2023-02-11T11:04:46.985Z,6.04
2023-02-11T11:07:34.281Z,6.04
2023-02-11T11:08:41.075Z,6.05
2023-02-11T11:09:48.393Z,6.08
2023-02-11T11:10:49.033Z,6.11
2023-02-11T11:11:52.863Z,6.10
2023-02-11T11:12:54.982Z,6.11
2023-02-11T11:13:52.514Z,6.06
2023-02-11T11:15:02.030Z,6.06
2023-02-11T11:18:22.465Z,6.12
2023-02-11T11:22:19.996Z,6.08
2023-02-11T11:23:22.797Z,6.18
2023-02-11T11:24:22.550Z,6.20
2023-02-11T11:25:30.634Z,6.21
2023-02-11T11:26:49.778Z,6.20
2023-02-11T11:27:47.126Z,6.15
2023-02-11T11:30:07.025Z,6.16
2023-02-11T11:31:36.214Z,6.19
2023-02-11T11:32:35.807Z,6.15
2023-02-11T11:33:32.964Z,6.14
2023-02-11T11:34:48.641Z,6.20
2023-02-11T11:35:41.051Z,6.21
2023-02-11T11:36:38.008Z,6.23
2023-02-11T11:37:33.223Z,6.19
2023-02-11T11:38:45.915Z,6.18
2023-02-11T11:40:19.390Z,6.27
2023-02-11T11:41:32.785Z,6.27
2023-02-11T11:42:44.563Z,6.26
2023-02-11T11:43:37.651Z,6.27
2023-02-11T11:44:34.904Z,6.30
2023-02-11T11:45:27.323Z,6.30
2023-02-11T11:46:25.383Z,6.28
2023-02-11T11:47:44.712Z,6.31
2023-02-11T11:48:46.884Z,6.30
2023-02-11T11:49:51.504Z,6.38
2023-02-11T11:50:48.034Z,6.42
2023-02-11T11:51:45.408Z,6.45
2023-02-11T11:53:11.085Z,6.48
2023-02-11T11:54:11.439Z,6.48
2023-02-11T11:55:21.779Z,6.46
2023-02-11T11:56:19.792Z,6.46
2023-02-11T11:57:22.948Z,6.42
2023-02-11T11:59:02.013Z,6.42
2023-02-11T11:59:55.822Z,6.38
2023-02-11T12:00:59.873Z,6.36
2023-02-11T12:02:11.478Z,6.39
2023-02-11T12:03:38.323Z,6.33
2023-02-11T12:04:59.056Z,6.38
2023-02-11T12:06:24.953Z,6.39
2023-02-11T12:07:46.211Z,6.40
2023-02-11T12:08:59.715Z,6.43
2023-02-11T12:10:17.262Z,6.38
2023-02-11T12:11:26.143Z,6.42
2023-02-11T12:12:35.812Z,6.43
2023-02-11T12:13:43.172Z,6.45
2023-02-11T12:15:07.727Z,6.37
2023-02-11T12:16:36.686Z,6.36
2023-02-11T12:17:51.949Z,6.38
2023-02-11T12:18:52.939Z,6.34
2023-02-11T12:20:17.589Z,6.29
2023-02-11T12:21:16.047Z,6.31
2023-02-11T12:22:12.431Z,6.40
2023-02-11T12:23:33.957Z,6.37
2023-02-11T12:24:53.515Z,6.31
2023-02-11T12:26:17.710Z,6.39
2023-02-11T12:27:29.406Z,6.46
2023-02-11T12:28:23.958Z,6.45
2023-02-11T12:29:41.745Z,6.38
2023-02-11T12:31:02.314Z,6.42
2023-02-11T12:32:07.815Z,6.47
2023-02-11T12:33:58.887Z,6.50
2023-02-11T12:36:00.207Z,6.54
2023-02-11T12:37:22.725Z,6.46
2023-02-11T12:38:25.955Z,6.46
2023-02-11T12:39:42.602Z,6.42
2023-02-11T12:40:43.952Z,6.41
2023-02-11T12:42:23.270Z,6.46
2023-02-11T12:43:24.508Z,6.48
2023-02-11T12:44:40.377Z,6.46
2023-02-11T12:45:42.627Z,6.47
2023-02-11T12:46:46.849Z,6.46
2023-02-11T12:52:59.904Z,6.49
2023-02-11T12:54:25.908Z,6.50
2023-02-11T12:55:28.211Z,6.52
2023-02-11T12:56:45.582Z,6.48